Fritz — WDF3166 — position and weather

sailwx.info

Track history (hours):
 
Tides and Currents Weather Stations Pressure Air Temp Water Temp Dewpoint Dewpoint Depression Visibility Wind Speed Wind Dir Waves Ship Positions

Fritz

Owner: Enterprise Marine Services, LLC, San Antonio, TX. More information available from US FCC via Universal Licensing System and Coast Guard Vessel Documentation Center.

Last reported at 2017-Nov-15 19:46 UTC. Time now 2017-Nov-24 11:36 UTC.
Position N 32°40' W 091°08'.
Warning: this ship's position is 8 days out of date.

Length 31 m.

Type: Towing. MMSI: 367428150.

Date/timePositionNaut miles runAvg speedWind from/ knotsBaromVisibWave heightAir tempDewpointWater temp
2017-Nov-15 19:46N 32°40' W 091°08'2 5.2
2017-Nov-15 19:25N 32°38' W 091°09'2 5.1
2017-Nov-15 19:00N 32°36' W 091°09'2 4.1
2017-Nov-15 18:30N 32°35' W 091°07'2 4.0
2017-Nov-15 18:00N 32°33' W 091°06'2 4.2
2017-Nov-15 17:30N 32°31' W 091°07'2 4.4
2017-Nov-15 17:00N 32°29' W 091°07'2 3.7
2017-Nov-15 16:30N 32°27' W 091°06'2 4.4
2017-Nov-15 16:00N 32°26' W 091°03'2 4.2
2017-Nov-15 15:30N 32°26' W 091°01'2 3.7
2017-Nov-15 15:00N 32°24' W 090°59'2 3.7
2017-Nov-15 14:30N 32°22' W 091°00'1 2.0
2017-Nov-15 14:00N 32°21' W 091°00'2 4.5
2017-Nov-15 13:30N 32°21' W 090°58'2 4.5
2017-Nov-15 13:00N 32°21' W 090°55'2 3.7
2017-Nov-15 12:31N 32°19' W 090°54'1 2.8
2017-Nov-15 12:00N 32°18' W 090°56'0 0.2
2017-Nov-15 11:30N 32°18' W 090°55'2 3.6
2017-Nov-15 11:00N 32°17' W 090°57'2 4.5
2017-Nov-15 10:30N 32°15' W 090°59'2 4.0
2017-Nov-15 10:00N 32°13' W 090°59'2 4.5
2017-Nov-15 09:30N 32°11' W 090°60'2 4.6
2017-Nov-15 09:00N 32°09' W 091°00'2 4.2
2017-Nov-15 08:30N 32°07' W 091°02'3 4.3
2017-Nov-15 07:52N 32°08' W 091°05'2 4.0
2017-Nov-15 07:25N 32°07' W 091°06'4 1.3
2017-Nov-15 04:21N 32°03' W 091°03'4 4.7
2017-Nov-15 03:30N 31°60' W 091°06'2 4.4
2017-Nov-15 03:00N 31°59' W 091°08'3 4.2
2017-Nov-15 02:18N 31°58' W 091°11'  
2017-Nov-12 11:30N 29°36' W 090°58'3 5.4
2017-Nov-12 11:00N 29°34' W 090°56'3 5.7
2017-Nov-12 10:30N 29°32' W 090°53'3 5.8
2017-Nov-12 10:00N 29°32' W 090°50'3 6.1
2017-Nov-12 09:30N 29°32' W 090°46'3 5.4
2017-Nov-12 09:00N 29°34' W 090°44'1 2.0
2017-Nov-12 08:30N 29°34' W 090°43'0 0.0
2017-Nov-12 08:00N 29°34' W 090°43'0 0.5
2017-Nov-12 07:30N 29°34' W 090°43'0 0.1
2017-Nov-12 07:00N 29°34' W 090°43'2 4.2
2017-Nov-12 06:30N 29°36' W 090°43'1 2.4
2017-Nov-12 06:00N 29°37' W 090°42'1 1.7
2017-Nov-12 05:30N 29°36' W 090°41'3 5.1
2017-Nov-12 05:00N 29°35' W 090°38'3 5.4
2017-Nov-12 04:30N 29°35' W 090°35'3 5.9
2017-Nov-12 03:59N 29°34' W 090°32'  
Track history (hours):
 
Tides and Currents Weather Stations Pressure Air Temp Water Temp Dewpoint Dewpoint Depression Visibility Wind Speed Wind Dir Waves Ship Positions

Fritz

Owner: Enterprise Marine Services, LLC, San Antonio, TX. More information available from US FCC via Universal Licensing System and Coast Guard Vessel Documentation Center.

Last reported at 2017-Nov-15 19:46 UTC. Time now 2017-Nov-24 11:36 UTC.
Position N 32°40' W 091°08'.
Warning: this ship's position is 8 days out of date.

Length 31 m.

Type: Towing. MMSI: 367428150.

Date/timePositionNaut miles runAvg speedWind from/ knotsBaromVisibWave heightAir tempDewpointWater temp
2017-Nov-15 19:46N 32°40' W 091°08'2 5.2
2017-Nov-15 19:25N 32°38' W 091°09'2 5.1
2017-Nov-15 19:00N 32°36' W 091°09'2 4.1
2017-Nov-15 18:30N 32°35' W 091°07'2 4.0
2017-Nov-15 18:00N 32°33' W 091°06'2 4.2
2017-Nov-15 17:30N 32°31' W 091°07'2 4.4
2017-Nov-15 17:00N 32°29' W 091°07'2 3.7
2017-Nov-15 16:30N 32°27' W 091°06'2 4.4
2017-Nov-15 16:00N 32°26' W 091°03'2 4.2
2017-Nov-15 15:30N 32°26' W 091°01'2 3.7
2017-Nov-15 15:00N 32°24' W 090°59'2 3.7
2017-Nov-15 14:30N 32°22' W 091°00'1 2.0
2017-Nov-15 14:00N 32°21' W 091°00'2 4.5
2017-Nov-15 13:30N 32°21' W 090°58'2 4.5
2017-Nov-15 13:00N 32°21' W 090°55'2 3.7
2017-Nov-15 12:31N 32°19' W 090°54'1 2.8
2017-Nov-15 12:00N 32°18' W 090°56'0 0.2
2017-Nov-15 11:30N 32°18' W 090°55'2 3.6
2017-Nov-15 11:00N 32°17' W 090°57'2 4.5
2017-Nov-15 10:30N 32°15' W 090°59'2 4.0
2017-Nov-15 10:00N 32°13' W 090°59'2 4.5
2017-Nov-15 09:30N 32°11' W 090°60'2 4.6
2017-Nov-15 09:00N 32°09' W 091°00'2 4.2
2017-Nov-15 08:30N 32°07' W 091°02'3 4.3
2017-Nov-15 07:52N 32°08' W 091°05'2 4.0
2017-Nov-15 07:25N 32°07' W 091°06'4 1.3
2017-Nov-15 04:21N 32°03' W 091°03'4 4.7
2017-Nov-15 03:30N 31°60' W 091°06'2 4.4
2017-Nov-15 03:00N 31°59' W 091°08'3 4.2
2017-Nov-15 02:18N 31°58' W 091°11'  
2017-Nov-12 11:30N 29°36' W 090°58'3 5.4
2017-Nov-12 11:00N 29°34' W 090°56'3 5.7
2017-Nov-12 10:30N 29°32' W 090°53'3 5.8
2017-Nov-12 10:00N 29°32' W 090°50'3 6.1
2017-Nov-12 09:30N 29°32' W 090°46'3 5.4
2017-Nov-12 09:00N 29°34' W 090°44'1 2.0
2017-Nov-12 08:30N 29°34' W 090°43'0 0.0
2017-Nov-12 08:00N 29°34' W 090°43'0 0.5
2017-Nov-12 07:30N 29°34' W 090°43'0 0.1
2017-Nov-12 07:00N 29°34' W 090°43'2 4.2
2017-Nov-12 06:30N 29°36' W 090°43'1 2.4
2017-Nov-12 06:00N 29°37' W 090°42'1 1.7
2017-Nov-12 05:30N 29°36' W 090°41'3 5.1
2017-Nov-12 05:00N 29°35' W 090°38'3 5.4
2017-Nov-12 04:30N 29°35' W 090°35'3 5.9
2017-Nov-12 03:59N 29°34' W 090°32'  

Dump ship's entire track history